createdAt,value
2023-05-06T00:01:05.738Z,80.80
2023-05-06T00:03:32.650Z,81.30
2023-05-06T00:05:59.572Z,81.60
2023-05-06T00:08:26.353Z,80.90
2023-05-06T00:10:53.050Z,81.70
2023-05-06T00:13:19.849Z,81.50
2023-05-06T00:15:46.671Z,82.00
2023-05-06T00:18:15.100Z,82.10
2023-05-06T00:20:41.899Z,82.10
2023-05-06T00:23:08.725Z,81.20
2023-05-06T00:25:35.663Z,81.60
2023-05-06T00:28:02.393Z,81.20
2023-05-06T00:30:29.268Z,81.00
2023-05-06T00:32:56.060Z,81.50
2023-05-06T00:35:22.821Z,81.60
2023-05-06T00:38:10.869Z,82.00
2023-05-06T00:40:37.865Z,81.50
2023-05-06T00:43:04.711Z,80.80
2023-05-06T00:45:31.673Z,80.60
2023-05-06T00:47:58.932Z,81.40
2023-05-06T00:50:28.147Z,82.10
2023-05-06T00:52:56.723Z,81.30
2023-05-06T00:55:23.512Z,82.20
2023-05-06T00:57:52.019Z,82.30
2023-05-06T01:00:19.624Z,82.10
2023-05-06T01:02:48.377Z,82.10
2023-05-06T01:05:22.183Z,82.10
2023-05-06T01:08:07.704Z,82.10
2023-05-06T01:10:42.302Z,82.20
2023-05-06T01:13:24.866Z,82.60
2023-05-06T01:15:54.674Z,82.10
2023-05-06T01:18:23.072Z,82.60
2023-05-06T01:20:52.459Z,82.10
2023-05-06T01:23:20.423Z,81.60
2023-05-06T01:25:47.178Z,81.60
2023-05-06T01:28:14.549Z,81.20
2023-05-06T01:30:57.793Z,81.40
2023-05-06T01:33:51.159Z,81.60
2023-05-06T01:36:41.203Z,81.80
2023-05-06T01:39:20.172Z,81.90
2023-05-06T01:41:50.506Z,81.50
2023-05-06T01:44:20.240Z,81.60
2023-05-06T01:46:48.458Z,82.30
2023-05-06T01:49:17.182Z,82.20
2023-05-06T01:51:51.577Z,81.80
2023-05-06T01:54:18.787Z,81.50
2023-05-06T01:56:46.481Z,81.60
2023-05-06T01:59:14.827Z,81.60
2023-05-06T02:01:41.497Z,81.80
2023-05-06T02:04:08.275Z,81.80
2023-05-06T02:06:35.848Z,82.10
2023-05-06T02:09:02.606Z,82.40
2023-05-06T02:11:31.739Z,82.00
2023-05-06T02:18:29.107Z,82.30
2023-05-06T02:20:56.378Z,80.50
2023-05-06T02:23:23.075Z,80.10
2023-05-06T02:25:50.232Z,80.70
2023-05-06T02:28:17.020Z,80.90
2023-05-06T02:30:43.855Z,81.60
2023-05-06T02:33:10.585Z,82.10
2023-05-06T02:35:37.887Z,82.50
2023-05-06T02:38:04.584Z,81.90
2023-05-06T02:40:31.286Z,80.80
2023-05-06T02:42:58.723Z,81.20
2023-05-06T02:45:25.456Z,82.30
2023-05-06T02:47:52.770Z,82.30
2023-05-06T02:50:19.574Z,82.40
2023-05-06T02:52:46.217Z,82.50
2023-05-06T02:55:12.953Z,82.30
2023-05-06T02:57:39.688Z,82.60
2023-05-06T03:00:07.066Z,82.50
2023-05-06T03:02:33.789Z,82.00
2023-05-06T03:05:00.922Z,82.80
2023-05-06T03:07:27.732Z,82.50
2023-05-06T03:09:54.596Z,82.30
2023-05-06T03:12:21.329Z,82.00
2023-05-06T03:14:48.212Z,82.30
2023-05-06T03:17:15.291Z,82.00
2023-05-06T03:19:41.977Z,81.90
2023-05-06T03:22:11.205Z,81.00
2023-05-06T03:24:41.759Z,80.70
2023-05-06T03:27:08.618Z,80.40
2023-05-06T03:29:35.463Z,81.30
2023-05-06T03:32:04.049Z,81.60
2023-05-06T03:34:34.069Z,81.80
2023-05-06T03:37:00.916Z,81.70
2023-05-06T03:39:28.628Z,81.90
2023-05-06T03:41:55.768Z,82.20
2023-05-06T03:44:23.167Z,82.50
2023-05-06T03:46:50.898Z,82.50
2023-05-06T03:49:20.508Z,82.50
2023-05-06T03:51:48.341Z,81.10
2023-05-06T03:54:16.707Z,81.00
2023-05-06T03:56:43.588Z,80.40
2023-05-06T03:59:10.555Z,81.40
2023-05-06T04:01:37.262Z,82.00
2023-05-06T04:04:04.132Z,82.20
2023-05-06T04:06:30.884Z,82.10
2023-05-06T04:08:57.649Z,82.40
2023-05-06T04:11:24.990Z,82.30
2023-05-06T04:13:51.918Z,82.00
2023-05-06T04:16:21.284Z,81.40
2023-05-06T04:18:49.405Z,81.60
2023-05-06T04:21:18.264Z,81.50
2023-05-06T04:23:51.181Z,79.80
2023-05-06T04:26:22.771Z,78.80
2023-05-06T04:28:49.477Z,79.60
2023-05-06T04:31:17.238Z,80.00
2023-05-06T04:33:46.591Z,80.50
2023-05-06T04:36:20.066Z,81.20
2023-05-06T04:39:00.916Z,79.90
2023-05-06T04:41:31.092Z,81.00
2023-05-06T04:43:57.923Z,80.00
2023-05-06T04:46:24.778Z,81.00
2023-05-06T04:48:52.943Z,81.20
2023-05-06T04:51:20.993Z,81.70
2023-05-06T04:53:47.789Z,81.60
2023-05-06T04:56:14.576Z,81.40
2023-05-06T04:58:41.269Z,81.00
2023-05-06T05:01:09.631Z,80.70
2023-05-06T05:03:36.396Z,81.10
2023-05-06T05:06:04.909Z,81.30
2023-05-06T05:08:31.832Z,81.00
2023-05-06T05:10:58.757Z,81.50
2023-05-06T05:13:27.776Z,81.30
2023-05-06T05:15:55.946Z,80.80
2023-05-06T05:18:25.170Z,82.00
2023-05-06T05:20:55.736Z,83.10
2023-05-06T05:23:22.678Z,82.20
2023-05-06T05:25:49.918Z,82.70
2023-05-06T05:28:17.035Z,82.40
2023-05-06T05:30:43.775Z,82.10
2023-05-06T05:33:10.650Z,81.50
2023-05-06T05:35:38.103Z,81.30
2023-05-06T05:38:05.559Z,80.90
2023-05-06T05:40:32.323Z,80.40
2023-05-06T05:42:59.041Z,79.50
2023-05-06T05:45:32.320Z,79.10
2023-05-06T05:47:59.228Z,78.90
2023-05-06T05:50:26.359Z,78.60
2023-05-06T05:52:54.226Z,79.00
2023-05-06T05:55:21.866Z,78.60
2023-05-06T05:57:50.000Z,79.40
2023-05-06T06:00:17.752Z,78.90
2023-05-06T06:02:44.672Z,78.90
2023-05-06T06:05:13.293Z,77.80
2023-05-06T06:07:40.019Z,78.60
2023-05-06T06:10:08.041Z,79.10
2023-05-06T06:12:35.190Z,79.10
2023-05-06T06:15:02.976Z,78.90
2023-05-06T06:17:30.468Z,78.10
2023-05-06T06:19:59.153Z,77.30
2023-05-06T06:22:26.324Z,77.60
2023-05-06T06:24:54.361Z,77.40
2023-05-06T06:27:21.022Z,76.90
2023-05-06T06:29:51.284Z,77.00
2023-05-06T06:32:18.265Z,76.80
2023-05-06T06:34:44.920Z,75.30
2023-05-06T06:37:12.496Z,76.60
2023-05-06T06:39:39.182Z,77.00
2023-05-06T06:42:06.969Z,76.60
2023-05-06T06:44:45.644Z,76.40
2023-05-06T06:47:12.314Z,75.70
2023-05-06T06:49:40.270Z,75.10
2023-05-06T06:52:07.069Z,74.80
2023-05-06T06:54:33.755Z,73.80
2023-05-06T06:57:01.547Z,74.60
2023-05-06T06:59:28.255Z,75.00
2023-05-06T07:01:55.003Z,74.70
2023-05-06T07:04:21.712Z,73.90
2023-05-06T07:06:48.398Z,74.50
2023-05-06T07:09:15.144Z,76.50
2023-05-06T07:11:41.817Z,76.80
2023-05-06T07:14:08.783Z,77.30
2023-05-06T07:16:35.482Z,78.00
2023-05-06T07:19:02.187Z,79.40
2023-05-06T07:21:32.082Z,79.00
2023-05-06T07:23:59.560Z,79.90
2023-05-06T07:26:26.534Z,78.40
2023-05-06T07:28:53.238Z,78.90
2023-05-06T07:31:21.038Z,77.40
2023-05-06T07:33:48.123Z,75.90
2023-05-06T07:36:14.828Z,76.40
2023-05-06T07:38:41.959Z,76.00
2023-05-06T07:41:08.665Z,77.70
2023-05-06T07:43:35.342Z,77.10
2023-05-06T07:46:04.961Z,76.40
2023-05-06T07:48:33.142Z,76.70
2023-05-06T07:51:00.639Z,76.20
2023-05-06T07:53:27.437Z,76.50
2023-05-06T07:55:57.073Z,76.80
2023-05-06T07:58:23.786Z,76.30
2023-05-06T08:00:50.537Z,77.00
2023-05-06T08:03:17.489Z,75.80
2023-05-06T08:05:44.367Z,76.50
2023-05-06T08:08:11.032Z,74.30
2023-05-06T08:10:37.785Z,75.10
2023-05-06T08:13:04.482Z,73.90
2023-05-06T08:15:31.229Z,73.90
2023-05-06T08:18:02.163Z,73.10
2023-05-06T08:20:33.972Z,73.70
2023-05-06T08:23:00.942Z,72.90
2023-05-06T08:25:27.651Z,72.40
2023-05-06T08:27:54.331Z,69.40
2023-05-06T08:30:21.065Z,69.70
2023-05-06T08:32:47.813Z,69.90
2023-05-06T08:35:14.540Z,70.60
2023-05-06T08:37:41.409Z,72.40
2023-05-06T08:40:21.695Z,71.40
2023-05-06T08:42:49.896Z,69.90
2023-05-06T08:45:17.587Z,70.30
2023-05-06T08:47:44.389Z,70.60
2023-05-06T08:50:11.362Z,71.40
2023-05-06T08:52:41.660Z,70.00
2023-05-06T08:55:10.013Z,69.20
2023-05-06T08:57:37.342Z,69.90
2023-05-06T09:00:04.955Z,69.90
2023-05-06T09:02:31.955Z,68.90
2023-05-06T09:05:00.150Z,68.50
2023-05-06T09:07:26.871Z,68.40
2023-05-06T09:09:53.584Z,67.20
2023-05-06T09:12:20.258Z,67.90
2023-05-06T09:14:50.086Z,66.80
2023-05-06T09:17:26.542Z,66.80
2023-05-06T09:19:54.720Z,67.90
2023-05-06T09:22:22.551Z,67.60
2023-05-06T09:24:56.829Z,68.60
2023-05-06T09:27:32.079Z,66.40
2023-05-06T09:30:07.829Z,64.90
2023-05-06T09:32:38.190Z,62.50
2023-05-06T09:35:07.402Z,64.40
2023-05-06T09:37:34.201Z,64.40
2023-05-06T09:40:01.130Z,64.50
2023-05-06T09:42:29.926Z,64.50
2023-05-06T09:45:01.377Z,63.90
2023-05-06T09:47:34.296Z,64.00
2023-05-06T09:50:02.773Z,63.40
2023-05-06T09:52:30.802Z,62.70
2023-05-06T09:54:58.212Z,63.30
2023-05-06T09:57:26.208Z,62.20
2023-05-06T09:59:55.403Z,62.30
2023-05-06T10:02:23.639Z,62.50
2023-05-06T10:04:54.287Z,65.80
2023-05-06T10:07:23.474Z,67.50
2023-05-06T10:09:53.088Z,67.50
2023-05-06T10:12:20.518Z,67.20
2023-05-06T10:14:47.539Z,67.70
2023-05-06T10:17:14.675Z,68.70
2023-05-06T10:19:45.541Z,68.30
2023-05-06T10:22:41.575Z,68.20
2023-05-06T10:25:19.186Z,68.50
2023-05-06T10:27:49.022Z,68.80
2023-05-06T10:30:19.472Z,68.90
2023-05-06T10:32:46.681Z,68.30
2023-05-06T10:35:46.149Z,68.10
2023-05-06T10:38:15.685Z,68.80
2023-05-06T10:40:43.630Z,68.60
2023-05-06T10:43:28.331Z,69.10
2023-05-06T10:46:05.974Z,69.30
2023-05-06T10:48:33.644Z,68.90
2023-05-06T10:51:15.762Z,69.30
2023-05-06T10:53:59.708Z,69.20
2023-05-06T10:56:26.732Z,68.00
2023-05-06T10:58:55.613Z,67.00
2023-05-06T11:01:25.998Z,65.70
2023-05-06T11:03:53.186Z,66.00
2023-05-06T11:06:38.484Z,65.00
2023-05-06T11:09:05.970Z,64.50
2023-05-06T11:12:05.566Z,64.00
2023-05-06T11:14:38.491Z,63.70
2023-05-06T11:17:30.402Z,64.20
2023-05-06T11:20:19.929Z,65.20
2023-05-06T11:22:46.742Z,64.30
2023-05-06T11:25:13.533Z,64.70
2023-05-06T11:27:40.983Z,65.00
2023-05-06T11:30:13.809Z,64.40
2023-05-06T11:32:43.160Z,64.30
2023-05-06T11:35:11.507Z,63.70
2023-05-06T11:37:38.200Z,63.70
2023-05-06T11:40:14.084Z,64.10
2023-05-06T11:42:41.132Z,63.50
2023-05-06T11:45:08.722Z,63.90
2023-05-06T11:47:35.628Z,63.50
2023-05-06T11:50:07.369Z,63.20
2023-05-06T11:52:35.591Z,62.70
2023-05-06T11:55:02.280Z,63.80
2023-05-06T11:57:30.080Z,62.60
2023-05-06T11:59:56.738Z,62.40
2023-05-06T12:02:23.455Z,59.60
2023-05-06T12:04:50.420Z,60.30
2023-05-06T12:07:17.476Z,60.20
2023-05-06T12:09:47.148Z,57.80
2023-05-06T12:12:22.330Z,54.60
2023-05-06T12:14:50.774Z,55.60
2023-05-06T12:17:17.680Z,54.60
2023-05-06T12:19:45.811Z,54.70
2023-05-06T12:22:16.031Z,55.30
2023-05-06T12:24:42.788Z,53.20
2023-05-06T12:27:09.525Z,53.60
2023-05-06T12:29:36.378Z,52.10
2023-05-06T12:32:11.375Z,52.90
2023-05-06T12:34:39.503Z,49.80
2023-05-06T12:37:07.795Z,50.10
2023-05-06T12:39:36.145Z,52.00
2023-05-06T12:42:03.329Z,55.60
2023-05-06T12:44:35.117Z,54.90
2023-05-06T12:47:09.720Z,53.40
2023-05-06T12:49:55.405Z,54.50
2023-05-06T12:52:23.482Z,54.40
2023-05-06T12:54:52.558Z,54.10
2023-05-06T12:57:19.832Z,54.90
2023-05-06T12:59:47.008Z,54.00
2023-05-06T13:02:14.293Z,53.80
2023-05-06T13:04:41.201Z,53.60
2023-05-06T13:07:08.002Z,53.80
2023-05-06T13:09:34.782Z,53.60
2023-05-06T13:12:02.483Z,53.60
2023-05-06T13:14:29.178Z,53.40
2023-05-06T13:16:56.074Z,53.60
2023-05-06T13:19:32.419Z,54.80
2023-05-06T13:22:00.526Z,55.10
2023-05-06T13:24:27.556Z,55.00
2023-05-06T13:26:56.032Z,55.40
2023-05-06T13:29:23.477Z,55.80
2023-05-06T13:31:50.372Z,55.20
2023-05-06T13:34:17.143Z,55.80
2023-05-06T13:36:43.888Z,55.30
2023-05-06T13:39:10.570Z,55.00
2023-05-06T13:41:37.299Z,54.30
2023-05-06T13:44:04.204Z,54.20
2023-05-06T13:46:31.361Z,54.20
2023-05-06T13:48:58.082Z,54.00
2023-05-06T13:51:29.177Z,53.20
2023-05-06T13:53:56.173Z,53.60
2023-05-06T13:56:22.874Z,54.10
2023-05-06T13:58:49.727Z,53.20
2023-05-06T14:01:16.404Z,53.40
2023-05-06T14:03:43.108Z,52.30
2023-05-06T14:06:09.814Z,51.70
2023-05-06T14:08:36.492Z,51.20
2023-05-06T14:11:03.216Z,50.70
2023-05-06T14:13:31.731Z,50.10
2023-05-06T14:15:59.423Z,51.00
2023-05-06T14:18:26.989Z,51.40
2023-05-06T14:20:54.164Z,51.10
2023-05-06T14:23:21.054Z,51.80
2023-05-06T14:25:48.186Z,52.60
2023-05-06T14:28:15.798Z,53.10
2023-05-06T14:30:43.103Z,52.20
2023-05-06T14:33:10.625Z,51.30
2023-05-06T14:35:42.088Z,51.40
2023-05-06T14:38:10.279Z,50.60
2023-05-06T14:40:38.656Z,48.90
2023-05-06T14:43:07.580Z,48.00
2023-05-06T14:45:34.531Z,48.40
2023-05-06T14:48:01.588Z,48.30
2023-05-06T14:50:28.612Z,48.80
2023-05-06T14:52:55.339Z,48.70
2023-05-06T14:55:22.100Z,49.50
2023-05-06T14:57:48.960Z,49.00
2023-05-06T15:00:16.797Z,49.10
2023-05-06T15:02:43.596Z,49.50
2023-05-06T15:05:10.730Z,49.70
2023-05-06T15:07:37.903Z,50.00
2023-05-06T15:10:05.040Z,50.20
2023-05-06T15:12:31.730Z,50.30
2023-05-06T15:14:58.453Z,49.50
2023-05-06T15:17:25.455Z,49.00
2023-05-06T15:19:52.224Z,48.60
2023-05-06T15:22:18.915Z,48.60
2023-05-06T15:24:45.594Z,49.30
2023-05-06T15:27:12.334Z,49.40
2023-05-06T15:29:40.095Z,49.60
2023-05-06T15:32:07.228Z,50.00
2023-05-06T15:34:34.053Z,48.10
2023-05-06T15:37:01.783Z,48.50
2023-05-06T15:39:28.715Z,48.90
2023-05-06T15:41:58.084Z,50.00
2023-05-06T15:44:26.878Z,51.40
2023-05-06T15:46:53.865Z,52.50
2023-05-06T15:49:47.368Z,53.60
2023-05-06T15:52:07.375Z,53.40
2023-05-06T15:54:37.483Z,53.50
2023-05-06T15:57:05.132Z,54.10
2023-05-06T15:59:33.513Z,53.70
2023-05-06T16:04:30.065Z,53.40
2023-05-06T16:06:57.591Z,53.80
2023-05-06T16:09:24.526Z,53.50
2023-05-06T16:11:51.282Z,53.60
2023-05-06T16:14:17.923Z,53.50
2023-05-06T16:16:44.589Z,52.50
2023-05-06T16:19:11.345Z,52.60
2023-05-06T16:21:38.058Z,52.70
2023-05-06T16:24:04.971Z,52.70
2023-05-06T16:26:31.657Z,51.70
2023-05-06T16:28:59.508Z,50.20
2023-05-06T16:31:26.702Z,48.60
2023-05-06T16:33:53.653Z,46.60
2023-05-06T16:36:20.307Z,45.90
2023-05-06T16:38:46.962Z,45.10
2023-05-06T16:41:13.741Z,45.00
2023-05-06T16:43:40.965Z,43.20
2023-05-06T16:46:07.650Z,43.10
2023-05-06T16:48:34.605Z,41.80
2023-05-06T16:51:01.538Z,42.10
2023-05-06T16:53:29.405Z,42.40
2023-05-06T16:55:56.328Z,43.60
2023-05-06T16:58:23.188Z,44.60
2023-05-06T17:00:52.517Z,45.30
2023-05-06T17:03:19.287Z,46.50
2023-05-06T17:05:46.746Z,47.40
2023-05-06T17:08:13.779Z,47.80
2023-05-06T17:10:40.697Z,48.80
2023-05-06T17:13:07.437Z,49.60
2023-05-06T17:15:34.268Z,50.40
2023-05-06T17:18:01.022Z,50.80
2023-05-06T17:20:27.972Z,51.10
2023-05-06T17:22:54.698Z,51.40
2023-05-06T17:25:21.454Z,50.90
2023-05-06T17:27:48.166Z,50.40
2023-05-06T17:30:15.073Z,49.60
2023-05-06T17:32:42.448Z,49.10
2023-05-06T17:35:10.105Z,48.50
2023-05-06T17:37:36.916Z,47.60
2023-05-06T17:40:05.229Z,46.90
2023-05-06T17:42:33.570Z,46.10
2023-05-06T17:45:00.331Z,46.40
2023-05-06T17:47:29.929Z,47.00
2023-05-06T17:49:56.967Z,46.50
2023-05-06T17:52:26.850Z,45.60
2023-05-06T17:55:06.260Z,46.30
2023-05-06T17:57:38.436Z,47.60
2023-05-06T18:00:07.255Z,48.90
2023-05-06T18:02:39.096Z,50.00
2023-05-06T18:05:06.439Z,51.20
2023-05-06T18:07:34.469Z,52.30
2023-05-06T18:10:01.439Z,53.10
2023-05-06T18:12:28.509Z,53.60
2023-05-06T18:14:56.696Z,54.50
2023-05-06T18:17:23.574Z,55.50
2023-05-06T18:19:50.337Z,56.00
2023-05-06T18:22:17.010Z,56.40
2023-05-06T18:24:43.681Z,57.40
2023-05-06T18:27:10.331Z,57.80
2023-05-06T18:29:37.174Z,58.60
2023-05-06T18:32:04.225Z,59.00
2023-05-06T18:34:31.004Z,60.10
2023-05-06T18:36:57.919Z,60.60
2023-05-06T18:39:25.060Z,61.10
2023-05-06T18:41:51.722Z,61.40
2023-05-06T18:44:18.360Z,61.70
2023-05-06T18:46:45.048Z,62.10
2023-05-06T18:49:13.945Z,62.60
2023-05-06T18:51:40.848Z,63.10
2023-05-06T18:54:07.536Z,63.20
2023-05-06T18:56:34.680Z,63.50
2023-05-06T18:59:01.395Z,63.80
2023-05-06T19:01:28.259Z,64.00
2023-05-06T19:03:56.370Z,65.10
2023-05-06T19:06:23.185Z,65.10
2023-05-06T19:08:49.977Z,65.50
2023-05-06T19:11:18.956Z,65.90
2023-05-06T19:13:46.212Z,66.30
2023-05-06T19:16:13.880Z,66.70
2023-05-06T19:18:40.830Z,66.90
2023-05-06T19:21:10.762Z,67.20
2023-05-06T19:23:37.546Z,67.60
2023-05-06T19:26:10.919Z,68.00
2023-05-06T19:28:39.366Z,68.10
2023-05-06T19:31:09.430Z,68.20
2023-05-06T19:33:39.460Z,68.60
2023-05-06T19:36:06.903Z,69.00
2023-05-06T19:38:34.336Z,68.80
2023-05-06T19:41:01.452Z,68.90
2023-05-06T19:43:28.444Z,69.30
2023-05-06T19:45:55.402Z,69.30
2023-05-06T19:48:23.630Z,69.70
2023-05-06T19:50:51.526Z,70.40
2023-05-06T19:53:18.300Z,70.20
2023-05-06T19:55:44.998Z,70.40
2023-05-06T19:58:13.951Z,70.50
2023-05-06T20:00:40.751Z,70.60
2023-05-06T20:03:08.004Z,70.80
2023-05-06T20:05:34.775Z,71.00
2023-05-06T20:08:01.484Z,71.20
2023-05-06T20:10:28.990Z,70.90
2023-05-06T20:12:57.894Z,71.30
2023-05-06T20:15:25.123Z,71.00
2023-05-06T20:17:51.878Z,71.60
2023-05-06T20:20:18.971Z,71.50
2023-05-06T20:22:45.956Z,70.20
2023-05-06T20:25:16.170Z,69.70
2023-05-06T20:27:44.523Z,69.70
2023-05-06T20:30:11.418Z,70.30
2023-05-06T20:32:39.386Z,71.20
2023-05-06T20:35:06.677Z,71.80
2023-05-06T20:37:36.650Z,71.50
2023-05-06T20:40:06.564Z,72.00
2023-05-06T20:42:36.813Z,72.30
2023-05-06T20:45:04.440Z,72.60
2023-05-06T20:47:31.440Z,72.10
2023-05-06T20:49:58.268Z,72.00
2023-05-06T20:52:25.131Z,72.60
2023-05-06T20:54:51.992Z,72.40
2023-05-06T20:57:19.197Z,72.10
2023-05-06T20:59:45.947Z,72.50
2023-05-06T21:02:12.586Z,72.90
2023-05-06T21:04:39.713Z,72.80
2023-05-06T21:07:06.336Z,72.70
2023-05-06T21:09:33.016Z,72.00
2023-05-06T21:11:59.764Z,72.30
2023-05-06T21:14:26.949Z,72.30
2023-05-06T21:16:53.893Z,71.90
2023-05-06T21:19:20.933Z,71.90
2023-05-06T21:21:48.207Z,71.90
2023-05-06T21:24:15.338Z,72.90
2023-05-06T21:26:42.054Z,72.40
2023-05-06T21:29:08.993Z,72.20
2023-05-06T21:31:35.965Z,71.70
2023-05-06T21:34:04.076Z,71.70
2023-05-06T21:36:31.142Z,72.00
2023-05-06T21:39:06.368Z,72.80
2023-05-06T21:41:35.382Z,73.30
2023-05-06T21:44:03.200Z,74.20
2023-05-06T21:46:30.086Z,74.00
2023-05-06T21:48:57.152Z,74.10
2023-05-06T21:51:28.424Z,73.10
2023-05-06T21:53:55.232Z,73.80
2023-05-06T21:56:22.242Z,73.80
2023-05-06T21:58:48.991Z,73.70
2023-05-06T22:01:15.944Z,73.90
2023-05-06T22:03:43.720Z,73.50
2023-05-06T22:06:10.708Z,72.70
2023-05-06T22:08:37.410Z,73.50
2023-05-06T22:11:04.193Z,73.30
2023-05-06T22:13:30.932Z,73.80
2023-05-06T22:15:57.816Z,74.10
2023-05-06T22:18:25.620Z,73.80
2023-05-06T22:20:56.463Z,73.50
2023-05-06T22:23:24.329Z,73.20
2023-05-06T22:25:54.575Z,73.50
2023-05-06T22:28:21.663Z,75.00
2023-05-06T22:30:48.428Z,74.70
2023-05-06T22:33:15.150Z,74.90
2023-05-06T22:35:41.895Z,76.60
2023-05-06T22:38:08.757Z,78.80
2023-05-06T22:40:35.485Z,78.10
2023-05-06T22:43:02.213Z,77.70
2023-05-06T22:45:29.029Z,78.30
2023-05-06T22:47:56.059Z,78.70
2023-05-06T22:50:22.861Z,78.20
2023-05-06T22:52:49.506Z,77.50
2023-05-06T22:55:16.369Z,77.50
2023-05-06T22:57:43.125Z,77.10
2023-05-06T23:00:12.455Z,77.30
2023-05-06T23:02:39.744Z,77.20
2023-05-06T23:05:06.688Z,76.30
2023-05-06T23:07:33.409Z,76.80
2023-05-06T23:10:00.147Z,76.30
2023-05-06T23:12:27.980Z,77.70
2023-05-06T23:14:54.692Z,79.00
2023-05-06T23:17:21.393Z,78.70
2023-05-06T23:19:48.050Z,78.70
2023-05-06T23:22:14.733Z,79.00
2023-05-06T23:24:42.188Z,78.90
2023-05-06T23:27:08.941Z,78.30
2023-05-06T23:29:35.632Z,78.10
2023-05-06T23:32:02.707Z,77.30
2023-05-06T23:34:29.349Z,77.30
2023-05-06T23:36:56.516Z,77.70
2023-05-06T23:39:23.276Z,77.50
2023-05-06T23:41:50.111Z,76.90
2023-05-06T23:44:16.840Z,77.80
2023-05-06T23:46:43.572Z,76.90
2023-05-06T23:49:10.564Z,77.10
2023-05-06T23:51:37.284Z,76.40
2023-05-06T23:54:04.080Z,76.10
2023-05-06T23:56:30.839Z,76.30
2023-05-06T23:58:57.504Z,76.40
